sensor_id;sensor_type;location;lat;lon;timestamp;pressure;altitude;pressure_sealevel;temperature;humidity
28267;BME280;15525;45.568;5.448;2023-07-02T00:01:35;97890.63;;;23.89;63.22
28267;BME280;15525;45.568;5.448;2023-07-02T00:04:01;97906.44;;;23.96;63.47
28267;BME280;15525;45.568;5.448;2023-07-02T00:06:26;97888.94;;;23.66;63.78
28267;BME280;15525;45.568;5.448;2023-07-02T00:08:51;97902.75;;;23.54;64.54
28267;BME280;15525;45.568;5.448;2023-07-02T00:11:17;97893.63;;;23.00;65.89
28267;BME280;15525;45.568;5.448;2023-07-02T00:13:42;97899.41;;;23.14;65.36
28267;BME280;15525;45.568;5.448;2023-07-02T00:16:08;97913.44;;;23.28;65.40
28267;BME280;15525;45.568;5.448;2023-07-02T00:18:33;97902.16;;;23.14;65.17
28267;BME280;15525;45.568;5.448;2023-07-02T00:21:02;97903.03;;;23.18;65.12
28267;BME280;15525;45.568;5.448;2023-07-02T00:23:30;97913.50;;;23.16;65.50
28267;BME280;15525;45.568;5.448;2023-07-02T00:25:59;97904.00;;;23.10;65.34
28267;BME280;15525;45.568;5.448;2023-07-02T00:28:24;97918.03;;;23.24;65.21
28267;BME280;15525;45.568;5.448;2023-07-02T00:30:49;97908.19;;;23.19;65.19
28267;BME280;15525;45.568;5.448;2023-07-02T00:33:15;97912.75;;;23.31;64.89
28267;BME280;15525;45.568;5.448;2023-07-02T00:35:41;97902.94;;;23.14;65.15
28267;BME280;15525;45.568;5.448;2023-07-02T00:38:06;97909.88;;;23.12;65.05
28267;BME280;15525;45.568;5.448;2023-07-02T00:40:31;97900.84;;;22.92;65.89
28267;BME280;15525;45.568;5.448;2023-07-02T00:42:57;97901.81;;;22.84;66.08
28267;BME280;15525;45.568;5.448;2023-07-02T00:45:22;97910.81;;;22.85;66.17
28267;BME280;15525;45.568;5.448;2023-07-02T00:47:53;97908.31;;;22.95;65.94
28267;BME280;15525;45.568;5.448;2023-07-02T00:50:22;97914.22;;;23.13;65.67
28267;BME280;15525;45.568;5.448;2023-07-02T00:52:48;97912.38;;;23.17;65.41
28267;BME280;15525;45.568;5.448;2023-07-02T00:55:13;97917.75;;;23.29;65.10
28267;BME280;15525;45.568;5.448;2023-07-02T00:57:39;97897.94;;;23.32;64.88
28267;BME280;15525;45.568;5.448;2023-07-02T01:00:06;97909.25;;;23.49;64.64
28267;BME280;15525;45.568;5.448;2023-07-02T01:02:32;97892.41;;;23.28;64.45
28267;BME280;15525;45.568;5.448;2023-07-02T01:04:58;97914.19;;;23.44;64.74
28267;BME280;15525;45.568;5.448;2023-07-02T01:07:25;97906.81;;;23.44;65.00
28267;BME280;15525;45.568;5.448;2023-07-02T01:09:51;97920.00;;;23.58;64.71
28267;BME280;15525;45.568;5.448;2023-07-02T01:12:17;97888.66;;;23.36;64.55
28267;BME280;15525;45.568;5.448;2023-07-02T01:14:51;97903.72;;;23.46;64.52
28267;BME280;15525;45.568;5.448;2023-07-02T01:17:19;97916.59;;;23.30;64.97
28267;BME280;15525;45.568;5.448;2023-07-02T01:19:53;97921.03;;;23.34;64.88
28267;BME280;15525;45.568;5.448;2023-07-02T01:22:22;97918.91;;;23.28;64.90
28267;BME280;15525;45.568;5.448;2023-07-02T01:24:49;97909.78;;;22.77;66.29
28267;BME280;15525;45.568;5.448;2023-07-02T01:27:15;97925.94;;;22.98;66.21
28267;BME280;15525;45.568;5.448;2023-07-02T01:29:41;97929.19;;;22.88;66.46
28267;BME280;15525;45.568;5.448;2023-07-02T01:32:07;97932.16;;;22.67;67.18
28267;BME280;15525;45.568;5.448;2023-07-02T01:34:36;97927.97;;;22.85;66.82
28267;BME280;15525;45.568;5.448;2023-07-02T01:37:03;97930.88;;;22.77;66.80
28267;BME280;15525;45.568;5.448;2023-07-02T01:39:29;97925.13;;;22.66;67.46
28267;BME280;15525;45.568;5.448;2023-07-02T01:42:16;97923.44;;;22.62;67.44
28267;BME280;15525;45.568;5.448;2023-07-02T01:44:46;97926.16;;;22.62;67.59
28267;BME280;15525;45.568;5.448;2023-07-02T01:47:12;97924.13;;;22.31;68.90
28267;BME280;15525;45.568;5.448;2023-07-02T01:49:38;97922.38;;;22.39;68.19
28267;BME280;15525;45.568;5.448;2023-07-02T01:52:05;97949.50;;;22.20;68.85
28267;BME280;15525;45.568;5.448;2023-07-02T01:54:32;97942.03;;;22.44;68.47
28267;BME280;15525;45.568;5.448;2023-07-02T01:56:58;97946.06;;;22.35;67.94
28267;BME280;15525;45.568;5.448;2023-07-02T01:59:24;97931.38;;;22.39;68.45
28267;BME280;15525;45.568;5.448;2023-07-02T02:01:49;97939.88;;;22.50;68.20
28267;BME280;15525;45.568;5.448;2023-07-02T02:04:15;97937.16;;;22.50;68.17
28267;BME280;15525;45.568;5.448;2023-07-02T02:06:40;97945.41;;;22.26;68.93
28267;BME280;15525;45.568;5.448;2023-07-02T02:09:07;97942.19;;;22.36;68.54
28267;BME280;15525;45.568;5.448;2023-07-02T02:11:34;97939.28;;;22.44;68.56
28267;BME280;15525;45.568;5.448;2023-07-02T02:14:00;97934.16;;;21.88;69.78
28267;BME280;15525;45.568;5.448;2023-07-02T02:16:27;97941.53;;;22.27;69.16
28267;BME280;15525;45.568;5.448;2023-07-02T02:18:53;97944.56;;;22.10;68.65
28267;BME280;15525;45.568;5.448;2023-07-02T02:21:19;97905.28;;;21.99;67.74
28267;BME280;15525;45.568;5.448;2023-07-02T02:23:44;97943.53;;;22.14;67.78
28267;BME280;15525;45.568;5.448;2023-07-02T02:26:10;97928.47;;;21.93;68.62
28267;BME280;15525;45.568;5.448;2023-07-02T02:28:36;97927.03;;;22.11;68.33
28267;BME280;15525;45.568;5.448;2023-07-02T02:31:01;97930.75;;;22.18;67.95
28267;BME280;15525;45.568;5.448;2023-07-02T02:33:27;97939.47;;;22.36;67.92
28267;BME280;15525;45.568;5.448;2023-07-02T02:35:52;97906.25;;;22.34;67.37
28267;BME280;15525;45.568;5.448;2023-07-02T02:38:18;97927.50;;;22.13;67.70
28267;BME280;15525;45.568;5.448;2023-07-02T02:40:43;97920.72;;;22.34;67.33
28267;BME280;15525;45.568;5.448;2023-07-02T02:43:09;97926.84;;;22.04;67.58
28267;BME280;15525;45.568;5.448;2023-07-02T02:45:34;97934.94;;;22.00;66.64
28267;BME280;15525;45.568;5.448;2023-07-02T02:48:00;97915.25;;;22.46;65.79
28267;BME280;15525;45.568;5.448;2023-07-02T02:50:25;97896.97;;;22.35;65.25
28267;BME280;15525;45.568;5.448;2023-07-02T02:52:50;97917.47;;;22.72;64.85
28267;BME280;15525;45.568;5.448;2023-07-02T02:55:16;97912.38;;;22.86;64.41
28267;BME280;15525;45.568;5.448;2023-07-02T02:57:41;97891.50;;;22.93;64.19
28267;BME280;15525;45.568;5.448;2023-07-02T03:00:08;97917.47;;;23.03;64.03
28267;BME280;15525;45.568;5.448;2023-07-02T03:02:34;97903.03;;;23.02;63.99
28267;BME280;15525;45.568;5.448;2023-07-02T03:05:01;97890.44;;;22.98;63.76
28267;BME280;15525;45.568;5.448;2023-07-02T03:07:31;97885.84;;;23.02;63.64
28267;BME280;15525;45.568;5.448;2023-07-02T03:09:56;97914.50;;;23.23;63.27
28267;BME280;15525;45.568;5.448;2023-07-02T03:12:22;97923.53;;;23.12;63.37
28267;BME280;15525;45.568;5.448;2023-07-02T03:14:47;97906.31;;;23.08;63.36
28267;BME280;15525;45.568;5.448;2023-07-02T03:17:18;97915.81;;;22.98;63.48
28267;BME280;15525;45.568;5.448;2023-07-02T03:19:43;97904.09;;;22.98;63.39
28267;BME280;15525;45.568;5.448;2023-07-02T03:22:09;97912.72;;;23.00;63.54
28267;BME280;15525;45.568;5.448;2023-07-02T03:24:34;97918.63;;;23.02;63.39
28267;BME280;15525;45.568;5.448;2023-07-02T03:27:00;97891.22;;;22.98;63.33
28267;BME280;15525;45.568;5.448;2023-07-02T03:29:25;97919.16;;;23.07;63.08
28267;BME280;15525;45.568;5.448;2023-07-02T03:31:50;97916.69;;;23.02;63.29
28267;BME280;15525;45.568;5.448;2023-07-02T03:34:16;97921.34;;;23.02;63.24
28267;BME280;15525;45.568;5.448;2023-07-02T03:36:41;97919.06;;;23.04;63.15
28267;BME280;15525;45.568;5.448;2023-07-02T03:39:06;97931.75;;;23.12;63.35
28267;BME280;15525;45.568;5.448;2023-07-02T03:41:32;97930.16;;;23.11;63.29
28267;BME280;15525;45.568;5.448;2023-07-02T03:43:57;97910.34;;;23.14;63.21
28267;BME280;15525;45.568;5.448;2023-07-02T03:46:23;97915.34;;;23.12;63.28
28267;BME280;15525;45.568;5.448;2023-07-02T03:48:48;97912.38;;;23.17;63.28
28267;BME280;15525;45.568;5.448;2023-07-02T03:51:14;97934.06;;;23.25;63.19
28267;BME280;15525;45.568;5.448;2023-07-02T03:53:41;97918.09;;;23.12;62.89
28267;BME280;15525;45.568;5.448;2023-07-02T03:56:06;97921.53;;;23.09;63.38
28267;BME280;15525;45.568;5.448;2023-07-02T03:58:32;97919.06;;;22.73;63.79
28267;BME280;15525;45.568;5.448;2023-07-02T04:00:57;97928.56;;;22.79;63.76
28267;BME280;15525;45.568;5.448;2023-07-02T04:03:22;97919.22;;;22.80;63.78
28267;BME280;15525;45.568;5.448;2023-07-02T04:05:48;97926.19;;;22.77;64.08
28267;BME280;15525;45.568;5.448;2023-07-02T04:08:15;97924.88;;;22.87;63.72
28267;BME280;15525;45.568;5.448;2023-07-02T04:10:40;97916.88;;;22.78;63.76
28267;BME280;15525;45.568;5.448;2023-07-02T04:13:05;97932.88;;;22.64;64.70
28267;BME280;15525;45.568;5.448;2023-07-02T04:15:31;97931.38;;;22.67;64.72
28267;BME280;15525;45.568;5.448;2023-07-02T04:17:57;97941.31;;;22.75;64.67
28267;BME280;15525;45.568;5.448;2023-07-02T04:20:22;97921.66;;;22.54;64.88
28267;BME280;15525;45.568;5.448;2023-07-02T04:22:48;97937.06;;;22.62;64.76
28267;BME280;15525;45.568;5.448;2023-07-02T04:25:15;97928.75;;;22.70;64.08
28267;BME280;15525;45.568;5.448;2023-07-02T04:27:41;97936.59;;;22.87;63.94
28267;BME280;15525;45.568;5.448;2023-07-02T04:30:08;97926.19;;;22.93;63.69
28267;BME280;15525;45.568;5.448;2023-07-02T04:32:35;97914.50;;;22.92;63.17
28267;BME280;15525;45.568;5.448;2023-07-02T04:35:00;97944.09;;;23.06;63.22
28267;BME280;15525;45.568;5.448;2023-07-02T04:37:26;97929.81;;;23.12;63.37
28267;BME280;15525;45.568;5.448;2023-07-02T04:39:52;97929.72;;;23.09;63.28
28267;BME280;15525;45.568;5.448;2023-07-02T04:42:18;97939.47;;;22.79;63.65
28267;BME280;15525;45.568;5.448;2023-07-02T04:44:43;97940.38;;;22.83;63.74
28267;BME280;15525;45.568;5.448;2023-07-02T04:47:09;97934.09;;;22.82;63.48
28267;BME280;15525;45.568;5.448;2023-07-02T04:49:34;97944.78;;;22.72;63.68
28267;BME280;15525;45.568;5.448;2023-07-02T04:52:00;97924.78;;;22.68;63.97
28267;BME280;15525;45.568;5.448;2023-07-02T04:54:25;97936.25;;;22.46;64.56
28267;BME280;15525;45.568;5.448;2023-07-02T04:56:51;97956.66;;;22.24;65.24
28267;BME280;15525;45.568;5.448;2023-07-02T04:59:16;97954.28;;;22.23;65.71
28267;BME280;15525;45.568;5.448;2023-07-02T05:01:42;97949.31;;;22.40;65.17
28267;BME280;15525;45.568;5.448;2023-07-02T05:04:10;97954.72;;;22.80;64.60
28267;BME280;15525;45.568;5.448;2023-07-02T05:06:38;97961.44;;;22.98;64.35
28267;BME280;15525;45.568;5.448;2023-07-02T05:09:04;97963.72;;;22.96;64.00
28267;BME280;15525;45.568;5.448;2023-07-02T05:11:29;97950.75;;;22.93;64.28
28267;BME280;15525;45.568;5.448;2023-07-02T05:13:55;97930.16;;;22.95;64.34
28267;BME280;15525;45.568;5.448;2023-07-02T05:16:20;97948.59;;;23.14;64.07
28267;BME280;15525;45.568;5.448;2023-07-02T05:18:46;97942.31;;;22.67;64.64
28267;BME280;15525;45.568;5.448;2023-07-02T05:21:11;97953.09;;;22.63;64.85
28267;BME280;15525;45.568;5.448;2023-07-02T05:23:37;97955.00;;;22.47;65.64
28267;BME280;15525;45.568;5.448;2023-07-02T05:26:03;97962.06;;;22.36;66.53
28267;BME280;15525;45.568;5.448;2023-07-02T05:28:28;97943.47;;;22.26;66.63
28267;BME280;15525;45.568;5.448;2023-07-02T05:30:54;97928.88;;;22.34;65.75
28267;BME280;15525;45.568;5.448;2023-07-02T05:33:20;97962.56;;;22.81;65.18
28267;BME280;15525;45.568;5.448;2023-07-02T05:35:47;97934.22;;;22.86;64.21
28267;BME280;15525;45.568;5.448;2023-07-02T05:38:12;97950.78;;;23.08;63.75
28267;BME280;15525;45.568;5.448;2023-07-02T05:40:38;97954.25;;;23.21;63.50
28267;BME280;15525;45.568;5.448;2023-07-02T05:43:03;97941.63;;;23.16;63.49
28267;BME280;15525;45.568;5.448;2023-07-02T05:45:28;97962.16;;;23.26;63.47
28267;BME280;15525;45.568;5.448;2023-07-02T05:47:54;97955.72;;;22.87;63.91
28267;BME280;15525;45.568;5.448;2023-07-02T05:50:20;97968.03;;;22.97;63.79
28267;BME280;15525;45.568;5.448;2023-07-02T05:52:45;97960.44;;;22.75;64.41
28267;BME280;15525;45.568;5.448;2023-07-02T05:55:11;97961.88;;;22.57;65.00
28267;BME280;15525;45.568;5.448;2023-07-02T05:57:37;97968.56;;;22.32;65.06
28267;BME280;15525;45.568;5.448;2023-07-02T06:00:06;97967.34;;;22.17;65.45
28267;BME280;15525;45.568;5.448;2023-07-02T06:02:32;97962.53;;;22.38;64.84
28267;BME280;15525;45.568;5.448;2023-07-02T06:04:57;97971.00;;;22.21;65.41
28267;BME280;15525;45.568;5.448;2023-07-02T06:07:24;97966.78;;;21.60;66.87
28267;BME280;15525;45.568;5.448;2023-07-02T06:09:50;97981.97;;;21.85;67.27
28267;BME280;15525;45.568;5.448;2023-07-02T06:12:15;97990.91;;;21.98;67.25
28267;BME280;15525;45.568;5.448;2023-07-02T06:14:41;97976.38;;;22.06;66.89
28267;BME280;15525;45.568;5.448;2023-07-02T06:17:07;97989.31;;;22.21;66.35
28267;BME280;15525;45.568;5.448;2023-07-02T06:19:33;97978.41;;;22.48;65.68
28267;BME280;15525;45.568;5.448;2023-07-02T06:21:58;97992.03;;;22.60;65.33
28267;BME280;15525;45.568;5.448;2023-07-02T06:24:25;97973.41;;;22.11;66.03
28267;BME280;15525;45.568;5.448;2023-07-02T06:26:51;98004.44;;;22.58;65.46
28267;BME280;15525;45.568;5.448;2023-07-02T06:29:16;97997.56;;;22.64;65.47
28267;BME280;15525;45.568;5.448;2023-07-02T06:31:41;97996.59;;;22.56;65.32
28267;BME280;15525;45.568;5.448;2023-07-02T06:34:07;97993.13;;;22.32;65.74
28267;BME280;15525;45.568;5.448;2023-07-02T06:36:34;97995.69;;;22.40;65.98
28267;BME280;15525;45.568;5.448;2023-07-02T06:38:59;97992.88;;;22.49;65.54
28267;BME280;15525;45.568;5.448;2023-07-02T06:41:25;97985.72;;;22.72;65.09
28267;BME280;15525;45.568;5.448;2023-07-02T06:43:50;97994.16;;;22.82;64.60
28267;BME280;15525;45.568;5.448;2023-07-02T06:46:15;97993.31;;;23.09;63.80
28267;BME280;15525;45.568;5.448;2023-07-02T06:48:41;98002.91;;;23.31;63.49
28267;BME280;15525;45.568;5.448;2023-07-02T06:51:06;98007.16;;;23.01;62.80
28267;BME280;15525;45.568;5.448;2023-07-02T06:53:33;98007.22;;;23.32;62.26
28267;BME280;15525;45.568;5.448;2023-07-02T06:55:58;98002.88;;;23.46;61.71
28267;BME280;15525;45.568;5.448;2023-07-02T06:58:24;98014.97;;;23.30;62.59
28267;BME280;15525;45.568;5.448;2023-07-02T07:00:49;97999.63;;;23.41;62.21
28267;BME280;15525;45.568;5.448;2023-07-02T07:03:16;98029.69;;;23.72;61.19
28267;BME280;15525;45.568;5.448;2023-07-02T07:05:41;98009.34;;;23.54;61.63
28267;BME280;15525;45.568;5.448;2023-07-02T07:08:07;98017.25;;;23.28;61.94
28267;BME280;15525;45.568;5.448;2023-07-02T07:10:32;97996.22;;;23.28;62.01
28267;BME280;15525;45.568;5.448;2023-07-02T07:13:00;98024.88;;;22.64;63.09
28267;BME280;15525;45.568;5.448;2023-07-02T07:15:26;98018.72;;;22.67;63.41
28267;BME280;15525;45.568;5.448;2023-07-02T07:17:52;98034.78;;;22.84;63.20
28267;BME280;15525;45.568;5.448;2023-07-02T07:20:18;97996.47;;;22.80;63.13
28267;BME280;15525;45.568;5.448;2023-07-02T07:22:43;98007.59;;;22.87;62.93
28267;BME280;15525;45.568;5.448;2023-07-02T07:25:09;98025.75;;;22.68;64.35
28267;BME280;15525;45.568;5.448;2023-07-02T07:27:35;98026.69;;;23.03;63.78
28267;BME280;15525;45.568;5.448;2023-07-02T07:30:00;98032.59;;;23.48;63.68
28267;BME280;15525;45.568;5.448;2023-07-02T07:32:26;98041.50;;;23.29;62.89
28267;BME280;15525;45.568;5.448;2023-07-02T07:34:51;98022.34;;;23.14;63.61
28267;BME280;15525;45.568;5.448;2023-07-02T07:37:17;98020.91;;;23.04;63.96
28267;BME280;15525;45.568;5.448;2023-07-02T07:39:42;98038.78;;;23.02;63.97
28267;BME280;15525;45.568;5.448;2023-07-02T07:42:07;98003.25;;;22.86;64.48
28267;BME280;15525;45.568;5.448;2023-07-02T07:44:33;98029.00;;;23.01;64.35
28267;BME280;15525;45.568;5.448;2023-07-02T07:46:59;98028.81;;;23.21;64.16
28267;BME280;15525;45.568;5.448;2023-07-02T07:49:24;98008.25;;;23.43;63.72
28267;BME280;15525;45.568;5.448;2023-07-02T07:51:50;98008.50;;;23.84;62.01
28267;BME280;15525;45.568;5.448;2023-07-02T07:54:15;98016.00;;;24.22;62.05
28267;BME280;15525;45.568;5.448;2023-07-02T07:56:40;98019.53;;;24.22;60.46
28267;BME280;15525;45.568;5.448;2023-07-02T07:59:06;98021.19;;;24.61;60.68
28267;BME280;15525;45.568;5.448;2023-07-02T08:01:31;98000.38;;;24.98;60.00
28267;BME280;15525;45.568;5.448;2023-07-02T08:03:57;98019.88;;;25.57;59.39
28267;BME280;15525;45.568;5.448;2023-07-02T08:06:22;97998.78;;;25.39;58.05
28267;BME280;15525;45.568;5.448;2023-07-02T08:08:47;98007.72;;;25.36;60.01
28267;BME280;15525;45.568;5.448;2023-07-02T08:11:13;98014.19;;;25.47;58.67
28267;BME280;15525;45.568;5.448;2023-07-02T08:13:38;98004.22;;;25.84;58.50
28267;BME280;15525;45.568;5.448;2023-07-02T08:16:04;98010.53;;;25.62;57.92
28267;BME280;15525;45.568;5.448;2023-07-02T08:18:29;98008.28;;;26.19;56.39
28267;BME280;15525;45.568;5.448;2023-07-02T08:20:55;98021.28;;;25.96;55.37
28267;BME280;15525;45.568;5.448;2023-07-02T08:23:20;98026.94;;;26.07;55.06
28267;BME280;15525;45.568;5.448;2023-07-02T08:25:45;98000.56;;;26.28;55.48
28267;BME280;15525;45.568;5.448;2023-07-02T08:28:11;98021.31;;;26.26;56.25
28267;BME280;15525;45.568;5.448;2023-07-02T08:30:36;97990.06;;;26.63;53.12
28267;BME280;15525;45.568;5.448;2023-07-02T08:33:02;98006.84;;;26.91;51.44
28267;BME280;15525;45.568;5.448;2023-07-02T08:35:27;97988.63;;;26.76;53.53
28267;BME280;15525;45.568;5.448;2023-07-02T08:37:53;98004.50;;;27.73;50.20
28267;BME280;15525;45.568;5.448;2023-07-02T08:40:19;98005.94;;;27.57;49.76
28267;BME280;15525;45.568;5.448;2023-07-02T08:42:45;98017.91;;;26.98;50.85
28267;BME280;15525;45.568;5.448;2023-07-02T08:45:16;98010.72;;;26.87;51.51
28267;BME280;15525;45.568;5.448;2023-07-02T08:47:43;98006.06;;;26.02;52.23
28267;BME280;15525;45.568;5.448;2023-07-02T08:50:09;98009.38;;;25.89;52.36
28267;BME280;15525;45.568;5.448;2023-07-02T08:52:35;98009.13;;;25.71;53.19
28267;BME280;15525;45.568;5.448;2023-07-02T08:55:00;97999.47;;;25.55;54.14
28267;BME280;15525;45.568;5.448;2023-07-02T08:57:25;97997.47;;;25.78;54.25
28267;BME280;15525;45.568;5.448;2023-07-02T08:59:51;98003.09;;;25.40;54.28
28267;BME280;15525;45.568;5.448;2023-07-02T09:02:17;98007.97;;;24.67;55.05
28267;BME280;15525;45.568;5.448;2023-07-02T09:04:42;98007.13;;;24.63;55.84
28267;BME280;15525;45.568;5.448;2023-07-02T09:07:09;98001.78;;;25.30;55.33
28267;BME280;15525;45.568;5.448;2023-07-02T09:09:48;98014.25;;;25.99;54.11
28267;BME280;15525;45.568;5.448;2023-07-02T09:12:26;98004.03;;;25.96;53.58
28267;BME280;15525;45.568;5.448;2023-07-02T09:15:00;98015.41;;;26.24;53.21
28267;BME280;15525;45.568;5.448;2023-07-02T09:17:30;98006.44;;;26.56;51.98
28267;BME280;15525;45.568;5.448;2023-07-02T09:19:57;97996.97;;;27.20;50.15
28267;BME280;15525;45.568;5.448;2023-07-02T09:22:23;97998.00;;;26.72;51.35
28267;BME280;15525;45.568;5.448;2023-07-02T09:24:57;98017.53;;;27.00;51.72
28267;BME280;15525;45.568;5.448;2023-07-02T09:27:55;98021.28;;;26.81;50.03
28267;BME280;15525;45.568;5.448;2023-07-02T09:30:20;97999.59;;;27.13;51.14
28267;BME280;15525;45.568;5.448;2023-07-02T09:32:46;98015.34;;;27.16;49.79
28267;BME280;15525;45.568;5.448;2023-07-02T09:35:12;98013.72;;;27.48;50.40
28267;BME280;15525;45.568;5.448;2023-07-02T09:37:38;97994.38;;;27.37;49.82
28267;BME280;15525;45.568;5.448;2023-07-02T09:40:08;97995.44;;;27.26;51.12
28267;BME280;15525;45.568;5.448;2023-07-02T09:42:35;98009.09;;;27.62;49.07
28267;BME280;15525;45.568;5.448;2023-07-02T09:45:04;97979.94;;;27.51;49.28
28267;BME280;15525;45.568;5.448;2023-07-02T09:47:35;97993.19;;;28.50;48.67
28267;BME280;15525;45.568;5.448;2023-07-02T09:50:04;97989.44;;;28.93;45.72
28267;BME280;15525;45.568;5.448;2023-07-02T09:52:31;97992.31;;;28.35;47.04
28267;BME280;15525;45.568;5.448;2023-07-02T09:54:58;97979.09;;;28.62;45.40
28267;BME280;15525;45.568;5.448;2023-07-02T09:57:24;97987.88;;;28.99;46.46
28267;BME280;15525;45.568;5.448;2023-07-02T09:59:49;97985.56;;;29.29;47.70
28267;BME280;15525;45.568;5.448;2023-07-02T10:02:15;97996.16;;;29.06;45.35
28267;BME280;15525;45.568;5.448;2023-07-02T10:04:46;97990.44;;;28.50;47.31
28267;BME280;15525;45.568;5.448;2023-07-02T10:07:25;97985.53;;;29.15;46.34
28267;BME280;15525;45.568;5.448;2023-07-02T10:09:50;97961.88;;;29.98;45.92
28267;BME280;15525;45.568;5.448;2023-07-02T10:12:21;97942.44;;;30.40;45.93
28267;BME280;15525;45.568;5.448;2023-07-02T10:14:48;97962.88;;;30.60;43.91
28267;BME280;15525;45.568;5.448;2023-07-02T10:17:31;97961.13;;;29.87;42.77
28267;BME280;15525;45.568;5.448;2023-07-02T10:20:01;97982.66;;;28.77;44.63
28267;BME280;15525;45.568;5.448;2023-07-02T10:22:44;97975.81;;;28.39;45.51
28267;BME280;15525;45.568;5.448;2023-07-02T10:25:09;97962.41;;;28.34;46.65
28267;BME280;15525;45.568;5.448;2023-07-02T10:27:36;97972.56;;;29.93;45.02
28267;BME280;15525;45.568;5.448;2023-07-02T10:30:04;97974.34;;;28.56;45.81
28267;BME280;15525;45.568;5.448;2023-07-02T10:32:30;97983.91;;;28.93;44.73
28267;BME280;15525;45.568;5.448;2023-07-02T10:34:56;97983.19;;;29.31;44.62
28267;BME280;15525;45.568;5.448;2023-07-02T10:37:24;97988.75;;;29.63;45.88
28267;BME280;15525;45.568;5.448;2023-07-02T10:39:50;97989.56;;;29.60;45.06
28267;BME280;15525;45.568;5.448;2023-07-02T10:42:17;97986.75;;;29.39;45.05
28267;BME280;15525;45.568;5.448;2023-07-02T10:44:52;97991.88;;;29.37;45.69
28267;BME280;15525;45.568;5.448;2023-07-02T10:47:18;97988.63;;;28.93;45.65
28267;BME280;15525;45.568;5.448;2023-07-02T10:49:44;97979.72;;;28.34;44.36
28267;BME280;15525;45.568;5.448;2023-07-02T10:52:10;97982.31;;;28.03;45.51
28267;BME280;15525;45.568;5.448;2023-07-02T10:54:46;97962.75;;;28.22;46.15
28267;BME280;15525;45.568;5.448;2023-07-02T10:57:17;97992.00;;;28.51;45.86
28267;BME280;15525;45.568;5.448;2023-07-02T10:59:45;97990.59;;;28.10;44.85
28267;BME280;15525;45.568;5.448;2023-07-02T11:02:11;97992.25;;;28.21;44.85
28267;BME280;15525;45.568;5.448;2023-07-02T11:04:37;97971.97;;;28.58;44.36
28267;BME280;15525;45.568;5.448;2023-07-02T11:07:03;97997.28;;;28.88;45.12
28267;BME280;15525;45.568;5.448;2023-07-02T11:09:29;97965.06;;;29.16;44.06
28267;BME280;15525;45.568;5.448;2023-07-02T11:11:56;97994.66;;;29.72;43.87
28267;BME280;15525;45.568;5.448;2023-07-02T11:14:36;97978.13;;;29.65;42.85
28267;BME280;15525;45.568;5.448;2023-07-02T11:17:03;97958.75;;;29.44;43.99
28267;BME280;15525;45.568;5.448;2023-07-02T11:19:31;97983.22;;;29.45;43.51
28267;BME280;15525;45.568;5.448;2023-07-02T11:21:58;97990.31;;;29.92;42.50
28267;BME280;15525;45.568;5.448;2023-07-02T11:24:34;97980.84;;;29.51;41.86
28267;BME280;15525;45.568;5.448;2023-07-02T11:27:01;97993.88;;;28.33;43.44
28267;BME280;15525;45.568;5.448;2023-07-02T11:29:28;97974.38;;;28.73;44.10
28267;BME280;15525;45.568;5.448;2023-07-02T11:31:54;97974.13;;;29.97;43.97
28267;BME280;15525;45.568;5.448;2023-07-02T11:34:21;97975.38;;;30.89;39.86
28267;BME280;15525;45.568;5.448;2023-07-02T11:36:47;97962.94;;;31.25;40.70
28267;BME280;15525;45.568;5.448;2023-07-02T11:39:13;97971.47;;;31.45;39.47
28267;BME280;15525;45.568;5.448;2023-07-02T11:41:42;97968.94;;;31.64;39.36
28267;BME280;15525;45.568;5.448;2023-07-02T11:44:10;97973.06;;;31.93;38.70
28267;BME280;15525;45.568;5.448;2023-07-02T11:46:35;97970.50;;;30.32;39.29
28267;BME280;15525;45.568;5.448;2023-07-02T11:49:02;97983.22;;;29.80;41.46
28267;BME280;15525;45.568;5.448;2023-07-02T11:51:28;97995.59;;;30.79;41.82
28267;BME280;15525;45.568;5.448;2023-07-02T11:54:03;97951.75;;;31.39;38.72
28267;BME280;15525;45.568;5.448;2023-07-02T11:56:29;97963.06;;;30.18;40.33
28267;BME280;15525;45.568;5.448;2023-07-02T11:58:55;97987.81;;;30.46;39.37
28267;BME280;15525;45.568;5.448;2023-07-02T12:01:20;97979.28;;;29.57;41.00
28267;BME280;15525;45.568;5.448;2023-07-02T12:03:45;97977.25;;;30.20;40.69
28267;BME280;15525;45.568;5.448;2023-07-02T12:06:11;97967.16;;;31.44;41.54
28267;BME280;15525;45.568;5.448;2023-07-02T12:08:36;97951.91;;;31.22;37.76
28267;BME280;15525;45.568;5.448;2023-07-02T12:11:02;97963.00;;;31.66;36.64
28267;BME280;15525;45.568;5.448;2023-07-02T12:13:27;97969.03;;;31.54;36.89
28267;BME280;15525;45.568;5.448;2023-07-02T12:15:52;97961.38;;;31.24;37.91
28267;BME280;15525;45.568;5.448;2023-07-02T12:18:18;97974.22;;;30.90;38.81
28267;BME280;15525;45.568;5.448;2023-07-02T12:20:43;97965.09;;;30.93;39.78
28267;BME280;15525;45.568;5.448;2023-07-02T12:23:09;97958.56;;;30.52;38.34
28267;BME280;15525;45.568;5.448;2023-07-02T12:25:36;97953.56;;;30.26;39.99
28267;BME280;15525;45.568;5.448;2023-07-02T12:28:03;97977.69;;;29.14;41.16
28267;BME280;15525;45.568;5.448;2023-07-02T12:30:30;97970.22;;;29.56;42.96
28267;BME280;15525;45.568;5.448;2023-07-02T12:32:55;97961.53;;;29.82;39.02
28267;BME280;15525;45.568;5.448;2023-07-02T12:35:20;97966.66;;;29.28;41.17
28267;BME280;15525;45.568;5.448;2023-07-02T12:37:49;97957.97;;;29.29;40.82
28267;BME280;15525;45.568;5.448;2023-07-02T12:40:15;97964.75;;;30.88;39.04
28267;BME280;15525;45.568;5.448;2023-07-02T12:42:42;97981.09;;;31.26;36.69
28267;BME280;15525;45.568;5.448;2023-07-02T12:45:08;97982.09;;;30.95;37.45
28267;BME280;15525;45.568;5.448;2023-07-02T12:47:34;97947.88;;;31.74;36.80
28267;BME280;15525;45.568;5.448;2023-07-02T12:49:59;97952.16;;;31.41;37.34
28267;BME280;15525;45.568;5.448;2023-07-02T12:52:25;97952.50;;;31.43;37.23
28267;BME280;15525;45.568;5.448;2023-07-02T12:54:50;97956.00;;;31.54;37.49
28267;BME280;15525;45.568;5.448;2023-07-02T12:57:17;97942.16;;;31.95;36.78